sensor_id;sensor_type;location;lat;lon;timestamp;pressure;altitude;pressure_sealevel;temperature
69590;BMP180;56792;50.644;17.984;2022-09-30T00:01:54;98922.80;;;8.30
69590;BMP180;56792;50.644;17.984;2022-09-30T00:04:24;98922.00;;;8.30
69590;BMP180;56792;50.644;17.984;2022-09-30T00:06:54;98924.60;;;8.30
69590;BMP180;56792;50.644;17.984;2022-09-30T00:09:24;98927.40;;;8.30
69590;BMP180;56792;50.644;17.984;2022-09-30T00:11:53;98927.00;;;8.30
69590;BMP180;56792;50.644;17.984;2022-09-30T00:14:24;98929.20;;;8.24
69590;BMP180;56792;50.644;17.984;2022-09-30T00:16:53;98927.00;;;8.20
69590;BMP180;56792;50.644;17.984;2022-09-30T00:19:23;98924.60;;;8.20
69590;BMP180;56792;50.644;17.984;2022-09-30T00:21:52;98928.40;;;8.20
69590;BMP180;56792;50.644;17.984;2022-09-30T00:24:22;98924.00;;;8.20
69590;BMP180;56792;50.644;17.984;2022-09-30T00:26:51;98922.40;;;8.20
69590;BMP180;56792;50.644;17.984;2022-09-30T00:29:20;98924.40;;;8.20
69590;BMP180;56792;50.644;17.984;2022-09-30T00:31:50;98920.80;;;8.20
69590;BMP180;56792;50.644;17.984;2022-09-30T00:34:19;98926.20;;;8.20
69590;BMP180;56792;50.644;17.984;2022-09-30T00:36:52;98924.80;;;8.16
69590;BMP180;56792;50.644;17.984;2022-09-30T00:39:27;98929.80;;;8.20
69590;BMP180;56792;50.644;17.984;2022-09-30T00:41:59;98930.40;;;8.10
69590;BMP180;56792;50.644;17.984;2022-09-30T00:44:51;98935.20;;;8.10
69590;BMP180;56792;50.644;17.984;2022-09-30T00:47:37;98943.40;;;8.10
69590;BMP180;56792;50.644;17.984;2022-09-30T00:50:19;98942.40;;;8.10
69590;BMP180;56792;50.644;17.984;2022-09-30T00:52:57;98949.40;;;8.10
69590;BMP180;56792;50.644;17.984;2022-09-30T00:55:47;98960.60;;;8.10
69590;BMP180;56792;50.644;17.984;2022-09-30T00:58:23;98967.60;;;8.10
69590;BMP180;56792;50.644;17.984;2022-09-30T01:00:54;98970.40;;;8.16
69590;BMP180;56792;50.644;17.984;2022-09-30T01:03:26;98972.20;;;8.10
69590;BMP180;56792;50.644;17.984;2022-09-30T01:05:56;98969.40;;;8.10
69590;BMP180;56792;50.644;17.984;2022-09-30T01:08:28;98959.60;;;8.10
69590;BMP180;56792;50.644;17.984;2022-09-30T01:10:58;98953.00;;;8.10
69590;BMP180;56792;50.644;17.984;2022-09-30T01:13:31;98947.60;;;8.20
69590;BMP180;56792;50.644;17.984;2022-09-30T01:16:21;98941.80;;;8.20
69590;BMP180;56792;50.644;17.984;2022-09-30T01:19:12;98942.60;;;8.20
69590;BMP180;56792;50.644;17.984;2022-09-30T01:22:23;98949.20;;;8.20
69590;BMP180;56792;50.644;17.984;2022-09-30T01:25:31;98958.40;;;8.18
69590;BMP180;56792;50.644;17.984;2022-09-30T01:29:00;98953.60;;;8.20
69590;BMP180;56792;50.644;17.984;2022-09-30T01:31:50;98949.80;;;8.20
69590;BMP180;56792;50.644;17.984;2022-09-30T01:34:39;98952.80;;;8.20
69590;BMP180;56792;50.644;17.984;2022-09-30T01:37:23;98948.40;;;8.20
69590;BMP180;56792;50.644;17.984;2022-09-30T01:40:03;98953.00;;;8.20
69590;BMP180;56792;50.644;17.984;2022-09-30T01:42:45;98949.00;;;8.22
69590;BMP180;56792;50.644;17.984;2022-09-30T01:45:25;98946.20;;;8.22
69590;BMP180;56792;50.644;17.984;2022-09-30T01:48:01;98950.40;;;8.24
69590;BMP180;56792;50.644;17.984;2022-09-30T01:50:43;98951.00;;;8.28
69590;BMP180;56792;50.644;17.984;2022-09-30T01:53:22;98955.40;;;8.30
69590;BMP180;56792;50.644;17.984;2022-09-30T01:55:58;98957.00;;;8.30
69590;BMP180;56792;50.644;17.984;2022-09-30T01:58:40;98952.40;;;8.30
69590;BMP180;56792;50.644;17.984;2022-09-30T02:01:22;98955.20;;;8.30
69590;BMP180;56792;50.644;17.984;2022-09-30T02:03:57;98959.60;;;8.30
69590;BMP180;56792;50.644;17.984;2022-09-30T02:06:32;98958.80;;;8.24
69590;BMP180;56792;50.644;17.984;2022-09-30T02:09:08;98952.60;;;8.20
69590;BMP180;56792;50.644;17.984;2022-09-30T02:11:41;98956.60;;;8.20
69590;BMP180;56792;50.644;17.984;2022-09-30T02:14:16;98957.40;;;8.24
69590;BMP180;56792;50.644;17.984;2022-09-30T02:16:54;98956.60;;;8.22
69590;BMP180;56792;50.644;17.984;2022-09-30T02:19:34;98955.00;;;8.20
69590;BMP180;56792;50.644;17.984;2022-09-30T02:22:10;98954.80;;;8.20
69590;BMP180;56792;50.644;17.984;2022-09-30T02:24:44;98953.80;;;8.20
69590;BMP180;56792;50.644;17.984;2022-09-30T02:27:23;98955.80;;;8.24
69590;BMP180;56792;50.644;17.984;2022-09-30T02:29:58;98961.00;;;8.30
69590;BMP180;56792;50.644;17.984;2022-09-30T02:32:34;98963.00;;;8.30
69590;BMP180;56792;50.644;17.984;2022-09-30T02:35:09;98959.80;;;8.30
69590;BMP180;56792;50.644;17.984;2022-09-30T02:37:44;98967.80;;;8.30
69590;BMP180;56792;50.644;17.984;2022-09-30T02:40:21;98966.40;;;8.30
69590;BMP180;56792;50.644;17.984;2022-09-30T02:42:50;98969.00;;;8.30
69590;BMP180;56792;50.644;17.984;2022-09-30T02:45:22;98963.60;;;8.30
69590;BMP180;56792;50.644;17.984;2022-09-30T02:48:07;98959.40;;;8.30
69590;BMP180;56792;50.644;17.984;2022-09-30T02:50:47;98955.60;;;8.30
69590;BMP180;56792;50.644;17.984;2022-09-30T02:53:28;98957.80;;;8.32
69590;BMP180;56792;50.644;17.984;2022-09-30T02:56:16;98960.60;;;8.36
69590;BMP180;56792;50.644;17.984;2022-09-30T02:58:49;98954.20;;;8.40
69590;BMP180;56792;50.644;17.984;2022-09-30T03:01:19;98959.40;;;8.40
69590;BMP180;56792;50.644;17.984;2022-09-30T03:03:53;98957.20;;;8.40
69590;BMP180;56792;50.644;17.984;2022-09-30T03:06:24;98955.40;;;8.40
69590;BMP180;56792;50.644;17.984;2022-09-30T03:08:54;98959.40;;;8.40
69590;BMP180;56792;50.644;17.984;2022-09-30T03:11:25;98965.80;;;8.40
69590;BMP180;56792;50.644;17.984;2022-09-30T03:14:22;98966.60;;;8.40
69590;BMP180;56792;50.644;17.984;2022-09-30T03:17:28;98971.40;;;8.42
69590;BMP180;56792;50.644;17.984;2022-09-30T03:20:33;98979.20;;;8.50
69590;BMP180;56792;50.644;17.984;2022-09-30T03:23:34;98980.20;;;8.50
69590;BMP180;56792;50.644;17.984;2022-09-30T03:26:20;98991.60;;;8.50
69590;BMP180;56792;50.644;17.984;2022-09-30T03:29:08;98993.00;;;8.50
69590;BMP180;56792;50.644;17.984;2022-09-30T03:31:53;98987.00;;;8.50
69590;BMP180;56792;50.644;17.984;2022-09-30T03:34:34;98987.60;;;8.50
69590;BMP180;56792;50.644;17.984;2022-09-30T03:37:17;98991.80;;;8.54
69590;BMP180;56792;50.644;17.984;2022-09-30T03:40:00;98992.40;;;8.52
69590;BMP180;56792;50.644;17.984;2022-09-30T03:42:40;98988.60;;;8.60
69590;BMP180;56792;50.644;17.984;2022-09-30T03:45:18;98991.60;;;8.58
69590;BMP180;56792;50.644;17.984;2022-09-30T03:47:54;98992.00;;;8.60
69590;BMP180;56792;50.644;17.984;2022-09-30T03:50:27;98994.60;;;8.60
69590;BMP180;56792;50.644;17.984;2022-09-30T03:52:59;98994.40;;;8.60
69590;BMP180;56792;50.644;17.984;2022-09-30T03:55:30;98998.80;;;8.60
69590;BMP180;56792;50.644;17.984;2022-09-30T03:58:00;98996.40;;;8.60
69590;BMP180;56792;50.644;17.984;2022-09-30T04:00:30;98995.00;;;8.60
69590;BMP180;56792;50.644;17.984;2022-09-30T04:02:59;98990.40;;;8.62
69590;BMP180;56792;50.644;17.984;2022-09-30T04:05:29;98984.40;;;8.66
69590;BMP180;56792;50.644;17.984;2022-09-30T04:07:58;98991.60;;;8.70
69590;BMP180;56792;50.644;17.984;2022-09-30T04:10:27;98993.20;;;8.70
69590;BMP180;56792;50.644;17.984;2022-09-30T04:12:57;98997.00;;;8.70
69590;BMP180;56792;50.644;17.984;2022-09-30T04:15:27;98996.20;;;8.70
69590;BMP180;56792;50.644;17.984;2022-09-30T04:17:58;98999.20;;;8.70
69590;BMP180;56792;50.644;17.984;2022-09-30T04:20:27;98997.60;;;8.70
69590;BMP180;56792;50.644;17.984;2022-09-30T04:22:59;98998.00;;;8.70
69590;BMP180;56792;50.644;17.984;2022-09-30T04:25:29;99006.40;;;8.70
69590;BMP180;56792;50.644;17.984;2022-09-30T04:27:58;99007.60;;;8.70
69590;BMP180;56792;50.644;17.984;2022-09-30T04:30:27;99008.20;;;8.70
69590;BMP180;56792;50.644;17.984;2022-09-30T04:32:56;99010.20;;;8.70
69590;BMP180;56792;50.644;17.984;2022-09-30T04:35:26;99015.00;;;8.70
69590;BMP180;56792;50.644;17.984;2022-09-30T04:37:57;99016.40;;;8.70
69590;BMP180;56792;50.644;17.984;2022-09-30T04:40:26;99015.00;;;8.70
69590;BMP180;56792;50.644;17.984;2022-09-30T04:42:57;99026.20;;;8.70
69590;BMP180;56792;50.644;17.984;2022-09-30T04:45:27;99027.00;;;8.70
69590;BMP180;56792;50.644;17.984;2022-09-30T04:47:57;99033.40;;;8.70
69590;BMP180;56792;50.644;17.984;2022-09-30T04:50:26;99037.80;;;8.70
69590;BMP180;56792;50.644;17.984;2022-09-30T04:52:57;99037.00;;;8.70
69590;BMP180;56792;50.644;17.984;2022-09-30T04:55:26;99035.00;;;8.70
69590;BMP180;56792;50.644;17.984;2022-09-30T04:57:56;99042.00;;;8.70
69590;BMP180;56792;50.644;17.984;2022-09-30T05:00:25;99035.20;;;8.80
69590;BMP180;56792;50.644;17.984;2022-09-30T05:02:55;99041.20;;;8.80
69590;BMP180;56792;50.644;17.984;2022-09-30T05:05:25;99043.60;;;8.80
69590;BMP180;56792;50.644;17.984;2022-09-30T05:07:59;99040.60;;;8.80
69590;BMP180;56792;50.644;17.984;2022-09-30T05:10:29;99037.60;;;8.80
69590;BMP180;56792;50.644;17.984;2022-09-30T05:12:59;99040.20;;;8.80
69590;BMP180;56792;50.644;17.984;2022-09-30T05:15:28;99038.40;;;8.80
69590;BMP180;56792;50.644;17.984;2022-09-30T05:17:57;99035.40;;;8.80
69590;BMP180;56792;50.644;17.984;2022-09-30T05:20:27;99042.20;;;8.80
69590;BMP180;56792;50.644;17.984;2022-09-30T05:22:56;99048.40;;;8.80
69590;BMP180;56792;50.644;17.984;2022-09-30T05:25:26;99054.60;;;8.80
69590;BMP180;56792;50.644;17.984;2022-09-30T05:27:55;99055.20;;;8.80
69590;BMP180;56792;50.644;17.984;2022-09-30T05:30:24;99057.80;;;8.88
69590;BMP180;56792;50.644;17.984;2022-09-30T05:32:54;99054.20;;;8.90
69590;BMP180;56792;50.644;17.984;2022-09-30T05:35:23;99058.60;;;8.90
69590;BMP180;56792;50.644;17.984;2022-09-30T05:37:53;99055.60;;;8.90
69590;BMP180;56792;50.644;17.984;2022-09-30T05:40:22;99046.00;;;8.90
69590;BMP180;56792;50.644;17.984;2022-09-30T05:42:52;99045.40;;;8.96
69590;BMP180;56792;50.644;17.984;2022-09-30T05:45:21;99055.60;;;9.00
69590;BMP180;56792;50.644;17.984;2022-09-30T05:47:53;99061.40;;;9.00
69590;BMP180;56792;50.644;17.984;2022-09-30T05:50:24;99059.00;;;9.00
69590;BMP180;56792;50.644;17.984;2022-09-30T05:52:54;99062.60;;;9.00
69590;BMP180;56792;50.644;17.984;2022-09-30T05:55:25;99073.60;;;9.02
69590;BMP180;56792;50.644;17.984;2022-09-30T05:57:54;99068.80;;;9.10
69590;BMP180;56792;50.644;17.984;2022-09-30T06:00:24;99070.00;;;9.10
69590;BMP180;56792;50.644;17.984;2022-09-30T06:02:53;99066.40;;;9.10
69590;BMP180;56792;50.644;17.984;2022-09-30T06:05:23;99066.80;;;9.10
69590;BMP180;56792;50.644;17.984;2022-09-30T06:07:53;99067.00;;;9.20
69590;BMP180;56792;50.644;17.984;2022-09-30T06:10:23;99074.00;;;9.20
69590;BMP180;56792;50.644;17.984;2022-09-30T06:12:52;99078.60;;;9.30
69590;BMP180;56792;50.644;17.984;2022-09-30T06:15:21;99078.00;;;9.30
69590;BMP180;56792;50.644;17.984;2022-09-30T06:17:53;99085.20;;;9.32
69590;BMP180;56792;50.644;17.984;2022-09-30T06:20:23;99091.00;;;9.40
69590;BMP180;56792;50.644;17.984;2022-09-30T06:22:52;99097.00;;;9.40
69590;BMP180;56792;50.644;17.984;2022-09-30T06:25:22;99101.40;;;9.48
69590;BMP180;56792;50.644;17.984;2022-09-30T06:27:51;99105.60;;;9.50
69590;BMP180;56792;50.644;17.984;2022-09-30T06:30:20;99106.40;;;9.50
69590;BMP180;56792;50.644;17.984;2022-09-30T06:32:50;99106.60;;;9.50
69590;BMP180;56792;50.644;17.984;2022-09-30T06:35:21;99111.80;;;9.60
69590;BMP180;56792;50.644;17.984;2022-09-30T06:37:52;99116.20;;;9.60
69590;BMP180;56792;50.644;17.984;2022-09-30T06:40:22;99116.40;;;9.66
69590;BMP180;56792;50.644;17.984;2022-09-30T06:42:58;99119.60;;;9.70
69590;BMP180;56792;50.644;17.984;2022-09-30T06:45:29;99124.40;;;9.70
69590;BMP180;56792;50.644;17.984;2022-09-30T06:48:02;99124.80;;;9.80
69590;BMP180;56792;50.644;17.984;2022-09-30T06:50:33;99126.80;;;9.80
69590;BMP180;56792;50.644;17.984;2022-09-30T06:53:06;99124.20;;;9.84
69590;BMP180;56792;50.644;17.984;2022-09-30T06:55:36;99128.60;;;9.90
69590;BMP180;56792;50.644;17.984;2022-09-30T06:58:08;99132.20;;;9.90
69590;BMP180;56792;50.644;17.984;2022-09-30T07:00:39;99133.40;;;10.00
69590;BMP180;56792;50.644;17.984;2022-09-30T07:03:20;99142.40;;;10.00
69590;BMP180;56792;50.644;17.984;2022-09-30T07:05:57;99146.80;;;10.06
69590;BMP180;56792;50.644;17.984;2022-09-30T07:08:29;99144.80;;;10.10
69590;BMP180;56792;50.644;17.984;2022-09-30T07:11:00;99145.20;;;10.10
69590;BMP180;56792;50.644;17.984;2022-09-30T07:13:31;99147.40;;;10.16
69590;BMP180;56792;50.644;17.984;2022-09-30T07:16:01;99150.20;;;10.20
69590;BMP180;56792;50.644;17.984;2022-09-30T07:18:30;99150.20;;;10.20
69590;BMP180;56792;50.644;17.984;2022-09-30T07:21:00;99150.40;;;10.20
69590;BMP180;56792;50.644;17.984;2022-09-30T07:23:29;99146.20;;;10.30
69590;BMP180;56792;50.644;17.984;2022-09-30T07:26:02;99152.20;;;10.30
69590;BMP180;56792;50.644;17.984;2022-09-30T07:28:35;99151.20;;;10.40
69590;BMP180;56792;50.644;17.984;2022-09-30T07:31:11;99149.40;;;10.40
69590;BMP180;56792;50.644;17.984;2022-09-30T07:33:41;99155.60;;;10.46
69590;BMP180;56792;50.644;17.984;2022-09-30T07:36:13;99153.80;;;10.50
69590;BMP180;56792;50.644;17.984;2022-09-30T07:38:46;99151.40;;;10.50
69590;BMP180;56792;50.644;17.984;2022-09-30T07:41:24;99154.40;;;10.60
69590;BMP180;56792;50.644;17.984;2022-09-30T07:43:57;99155.40;;;10.60
69590;BMP180;56792;50.644;17.984;2022-09-30T07:46:30;99158.20;;;10.70
69590;BMP180;56792;50.644;17.984;2022-09-30T07:49:01;99160.80;;;10.70
69590;BMP180;56792;50.644;17.984;2022-09-30T07:51:35;99160.00;;;10.70
69590;BMP180;56792;50.644;17.984;2022-09-30T07:54:07;99165.40;;;10.70
69590;BMP180;56792;50.644;17.984;2022-09-30T07:56:37;99164.00;;;10.80
69590;BMP180;56792;50.644;17.984;2022-09-30T07:59:07;99166.60;;;10.80
69590;BMP180;56792;50.644;17.984;2022-09-30T08:01:38;99169.20;;;10.80
69590;BMP180;56792;50.644;17.984;2022-09-30T08:04:10;99168.80;;;10.90
69590;BMP180;56792;50.644;17.984;2022-09-30T08:06:43;99169.60;;;10.90
69590;BMP180;56792;50.644;17.984;2022-09-30T08:09:14;99171.00;;;10.92
69590;BMP180;56792;50.644;17.984;2022-09-30T08:11:45;99167.80;;;11.00
69590;BMP180;56792;50.644;17.984;2022-09-30T08:14:17;99173.00;;;11.00
69590;BMP180;56792;50.644;17.984;2022-09-30T08:16:47;99172.60;;;11.00
69590;BMP180;56792;50.644;17.984;2022-09-30T08:19:21;99173.00;;;11.10
69590;BMP180;56792;50.644;17.984;2022-09-30T08:21:51;99171.80;;;11.20
69590;BMP180;56792;50.644;17.984;2022-09-30T08:24:22;99173.00;;;11.20
69590;BMP180;56792;50.644;17.984;2022-09-30T08:26:52;99176.80;;;11.30
69590;BMP180;56792;50.644;17.984;2022-09-30T08:29:22;99176.80;;;11.30
69590;BMP180;56792;50.644;17.984;2022-09-30T08:31:51;99183.20;;;11.40
69590;BMP180;56792;50.644;17.984;2022-09-30T08:34:21;99179.80;;;11.40
69590;BMP180;56792;50.644;17.984;2022-09-30T08:36:50;99184.00;;;11.50
69590;BMP180;56792;50.644;17.984;2022-09-30T08:39:19;99186.60;;;11.50
69590;BMP180;56792;50.644;17.984;2022-09-30T08:42:08;99188.20;;;11.50
69590;BMP180;56792;50.644;17.984;2022-09-30T08:44:46;99188.00;;;11.60
69590;BMP180;56792;50.644;17.984;2022-09-30T08:47:44;99187.80;;;11.60
69590;BMP180;56792;50.644;17.984;2022-09-30T08:50:27;99190.00;;;11.64
69590;BMP180;56792;50.644;17.984;2022-09-30T08:53:03;99193.00;;;11.70
69590;BMP180;56792;50.644;17.984;2022-09-30T08:55:39;99195.20;;;11.70
69590;BMP180;56792;50.644;17.984;2022-09-30T08:58:22;99198.00;;;11.70
69590;BMP180;56792;50.644;17.984;2022-09-30T09:01:00;99197.40;;;11.72
69590;BMP180;56792;50.644;17.984;2022-09-30T09:03:33;99202.40;;;11.80
69590;BMP180;56792;50.644;17.984;2022-09-30T09:06:19;99205.20;;;11.80
69590;BMP180;56792;50.644;17.984;2022-09-30T09:09:14;99210.00;;;11.80
69590;BMP180;56792;50.644;17.984;2022-09-30T09:12:17;99211.00;;;11.90
69590;BMP180;56792;50.644;17.984;2022-09-30T09:18:19;99214.60;;;12.00
69590;BMP180;56792;50.644;17.984;2022-09-30T09:20:57;99219.40;;;12.00
69590;BMP180;56792;50.644;17.984;2022-09-30T09:23:29;99215.80;;;12.00
69590;BMP180;56792;50.644;17.984;2022-09-30T09:26:01;99223.00;;;12.00
69590;BMP180;56792;50.644;17.984;2022-09-30T09:28:38;99218.40;;;12.00
69590;BMP180;56792;50.644;17.984;2022-09-30T09:31:16;99226.60;;;12.00
69590;BMP180;56792;50.644;17.984;2022-09-30T09:33:47;99224.80;;;12.02
69590;BMP180;56792;50.644;17.984;2022-09-30T09:36:32;99228.60;;;12.10
69590;BMP180;56792;50.644;17.984;2022-09-30T09:39:25;99236.80;;;12.10
69590;BMP180;56792;50.644;17.984;2022-09-30T09:42:04;99235.40;;;12.16
69590;BMP180;56792;50.644;17.984;2022-09-30T09:44:42;99239.00;;;12.20
69590;BMP180;56792;50.644;17.984;2022-09-30T09:47:15;99239.60;;;12.20
69590;BMP180;56792;50.644;17.984;2022-09-30T09:49:47;99239.40;;;12.20
69590;BMP180;56792;50.644;17.984;2022-09-30T09:55:28;99237.60;;;12.22
69590;BMP180;56792;50.644;17.984;2022-09-30T09:58:09;99239.60;;;12.30
69590;BMP180;56792;50.644;17.984;2022-09-30T10:00:42;99242.40;;;12.30
69590;BMP180;56792;50.644;17.984;2022-09-30T10:03:29;99243.80;;;12.30
69590;BMP180;56792;50.644;17.984;2022-09-30T10:06:05;99245.00;;;12.30
69590;BMP180;56792;50.644;17.984;2022-09-30T10:08:38;99251.80;;;12.30
69590;BMP180;56792;50.644;17.984;2022-09-30T10:11:21;99254.20;;;12.38
69590;BMP180;56792;50.644;17.984;2022-09-30T10:13:53;99255.20;;;12.34
69590;BMP180;56792;50.644;17.984;2022-09-30T10:16:31;99259.00;;;12.40
69590;BMP180;56792;50.644;17.984;2022-09-30T10:19:04;99263.20;;;12.40
69590;BMP180;56792;50.644;17.984;2022-09-30T10:21:45;99261.80;;;12.40
69590;BMP180;56792;50.644;17.984;2022-09-30T10:24:29;99262.20;;;12.40
69590;BMP180;56792;50.644;17.984;2022-09-30T10:26:59;99259.00;;;12.50
69590;BMP180;56792;50.644;17.984;2022-09-30T10:29:31;99262.60;;;12.50
69590;BMP180;56792;50.644;17.984;2022-09-30T10:32:05;99260.60;;;12.50
69590;BMP180;56792;50.644;17.984;2022-09-30T10:34:39;99265.60;;;12.60
69590;BMP180;56792;50.644;17.984;2022-09-30T10:37:15;99265.60;;;12.60
69590;BMP180;56792;50.644;17.984;2022-09-30T10:39:54;99269.40;;;12.68
69590;BMP180;56792;50.644;17.984;2022-09-30T10:42:27;99267.00;;;12.70
69590;BMP180;56792;50.644;17.984;2022-09-30T10:45:00;99268.60;;;12.70
69590;BMP180;56792;50.644;17.984;2022-09-30T10:47:34;99272.00;;;12.70
69590;BMP180;56792;50.644;17.984;2022-09-30T10:50:09;99276.60;;;12.70
69590;BMP180;56792;50.644;17.984;2022-09-30T10:52:54;99276.00;;;12.78
69590;BMP180;56792;50.644;17.984;2022-09-30T10:55:34;99276.00;;;12.80
69590;BMP180;56792;50.644;17.984;2022-09-30T10:58:28;99272.80;;;12.82
69590;BMP180;56792;50.644;17.984;2022-09-30T11:01:03;99271.80;;;12.90
69590;BMP180;56792;50.644;17.984;2022-09-30T11:03:42;99270.60;;;12.90
69590;BMP180;56792;50.644;17.984;2022-09-30T11:06:15;99271.20;;;13.00
69590;BMP180;56792;50.644;17.984;2022-09-30T11:08:54;99272.60;;;13.00
69590;BMP180;56792;50.644;17.984;2022-09-30T11:11:35;99273.40;;;13.00
69590;BMP180;56792;50.644;17.984;2022-09-30T11:14:22;99277.20;;;13.00
69590;BMP180;56792;50.644;17.984;2022-09-30T11:17:09;99272.00;;;13.00
69590;BMP180;56792;50.644;17.984;2022-09-30T11:19:52;99279.40;;;13.00
69590;BMP180;56792;50.644;17.984;2022-09-30T11:22:36;99277.80;;;13.00
69590;BMP180;56792;50.644;17.984;2022-09-30T11:25:14;99272.80;;;12.90
69590;BMP180;56792;50.644;17.984;2022-09-30T11:28:10;99276.40;;;12.90
69590;BMP180;56792;50.644;17.984;2022-09-30T11:30:53;99279.00;;;12.86
69590;BMP180;56792;50.644;17.984;2022-09-30T11:33:52;99276.80;;;12.80
69590;BMP180;56792;50.644;17.984;2022-09-30T11:36:37;99277.80;;;12.80
69590;BMP180;56792;50.644;17.984;2022-09-30T11:39:37;99274.80;;;12.80
69590;BMP180;56792;50.644;17.984;2022-09-30T11:42:17;99280.60;;;12.80
69590;BMP180;56792;50.644;17.984;2022-09-30T11:45:00;99281.80;;;12.80
69590;BMP180;56792;50.644;17.984;2022-09-30T11:47:50;99281.40;;;12.80
69590;BMP180;56792;50.644;17.984;2022-09-30T11:50:42;99284.20;;;12.80
69590;BMP180;56792;50.644;17.984;2022-09-30T11:53:24;99284.60;;;12.80
69590;BMP180;56792;50.644;17.984;2022-09-30T11:56:22;99284.80;;;12.80
69590;BMP180;56792;50.644;17.984;2022-09-30T11:58:58;99281.60;;;12.80
69590;BMP180;56792;50.644;17.984;2022-09-30T12:01:32;99277.20;;;12.80
69590;BMP180;56792;50.644;17.984;2022-09-30T12:04:11;99277.40;;;12.90
69590;BMP180;56792;50.644;17.984;2022-09-30T12:06:48;99273.20;;;12.90
69590;BMP180;56792;50.644;17.984;2022-09-30T12:09:24;99280.00;;;12.90
69590;BMP180;56792;50.644;17.984;2022-09-30T12:12:02;99283.00;;;12.90
69590;BMP180;56792;50.644;17.984;2022-09-30T12:14:40;99289.60;;;13.00
69590;BMP180;56792;50.644;17.984;2022-09-30T12:17:21;99291.60;;;13.00
69590;BMP180;56792;50.644;17.984;2022-09-30T12:19:58;99294.60;;;12.90
69590;BMP180;56792;50.644;17.984;2022-09-30T12:22:36;99294.20;;;12.90
69590;BMP180;56792;50.644;17.984;2022-09-30T12:25:17;99296.40;;;12.80
69590;BMP180;56792;50.644;17.984;2022-09-30T12:27:55;99298.40;;;12.80
69590;BMP180;56792;50.644;17.984;2022-09-30T12:30:30;99301.20;;;12.70
69590;BMP180;56792;50.644;17.984;2022-09-30T12:33:34;99301.00;;;12.70
69590;BMP180;56792;50.644;17.984;2022-09-30T12:36:43;99302.60;;;12.70
69590;BMP180;56792;50.644;17.984;2022-09-30T12:39:47;99304.20;;;12.60
69590;BMP180;56792;50.644;17.984;2022-09-30T12:46:15;99312.60;;;12.70
69590;BMP180;56792;50.644;17.984;2022-09-30T12:48:48;99310.40;;;12.68
69590;BMP180;56792;50.644;17.984;2022-09-30T12:51:28;99315.20;;;12.60
69590;BMP180;56792;50.644;17.984;2022-09-30T12:54:03;99316.80;;;12.60
69590;BMP180;56792;50.644;17.984;2022-09-30T12:56:35;99323.40;;;12.60
69590;BMP180;56792;50.644;17.984;2022-09-30T12:59:07;99326.20;;;12.68
69590;BMP180;56792;50.644;17.984;2022-09-30T13:01:39;99331.40;;;12.70
69590;BMP180;56792;50.644;17.984;2022-09-30T13:04:32;99334.60;;;12.70
69590;BMP180;56792;50.644;17.984;2022-09-30T13:07:22;99339.20;;;12.70
69590;BMP180;56792;50.644;17.984;2022-09-30T13:10:15;99341.40;;;12.80
69590;BMP180;56792;50.644;17.984;2022-09-30T13:13:23;99343.20;;;12.80
69590;BMP180;56792;50.644;17.984;2022-09-30T13:15:53;99344.20;;;12.70
69590;BMP180;56792;50.644;17.984;2022-09-30T13:19:00;99345.60;;;12.70
69590;BMP180;56792;50.644;17.984;2022-09-30T13:21:30;99341.20;;;12.70
69590;BMP180;56792;50.644;17.984;2022-09-30T13:23:59;99341.60;;;12.80
69590;BMP180;56792;50.644;17.984;2022-09-30T13:26:44;99343.20;;;12.80
69590;BMP180;56792;50.644;17.984;2022-09-30T13:29:48;99349.80;;;12.80
69590;BMP180;56792;50.644;17.984;2022-09-30T13:32:33;99351.60;;;12.80
69590;BMP180;56792;50.644;17.984;2022-09-30T13:35:35;99349.60;;;12.90
69590;BMP180;56792;50.644;17.984;2022-09-30T13:38:20;99340.00;;;12.90
69590;BMP180;56792;50.644;17.984;2022-09-30T13:41:12;99340.40;;;12.90
69590;BMP180;56792;50.644;17.984;2022-09-30T13:43:50;99343.80;;;12.90
69590;BMP180;56792;50.644;17.984;2022-09-30T13:46:30;99347.40;;;12.90
69590;BMP180;56792;50.644;17.984;2022-09-30T13:49:09;99351.80;;;12.90
69590;BMP180;56792;50.644;17.984;2022-09-30T13:51:41;99350.20;;;12.90
69590;BMP180;56792;50.644;17.984;2022-09-30T13:54:22;99352.60;;;12.90
69590;BMP180;56792;50.644;17.984;2022-09-30T13:56:53;99352.20;;;12.94
69590;BMP180;56792;50.644;17.984;2022-09-30T13:59:40;99351.40;;;12.90
69590;BMP180;56792;50.644;17.984;2022-09-30T14:02:54;99349.00;;;13.00
69590;BMP180;56792;50.644;17.984;2022-09-30T14:06:02;99348.00;;;12.92
69590;BMP180;56792;50.644;17.984;2022-09-30T14:08:58;99345.00;;;12.90
69590;BMP180;56792;50.644;17.984;2022-09-30T14:11:48;99340.60;;;12.90
69590;BMP180;56792;50.644;17.984;2022-09-30T14:18:23;99337.20;;;12.80
69590;BMP180;56792;50.644;17.984;2022-09-30T14:21:21;99339.80;;;12.70
69590;BMP180;56792;50.644;17.984;2022-09-30T14:24:08;99341.00;;;12.70
69590;BMP180;56792;50.644;17.984;2022-09-30T14:30:05;99348.20;;;12.70
69590;BMP180;56792;50.644;17.984;2022-09-30T14:32:42;99349.00;;;12.80
69590;BMP180;56792;50.644;17.984;2022-09-30T14:35:17;99354.60;;;12.80
69590;BMP180;56792;50.644;17.984;2022-09-30T14:37:52;99355.80;;;12.80
69590;BMP180;56792;50.644;17.984;2022-09-30T14:40:29;99355.60;;;12.86
69590;BMP180;56792;50.644;17.984;2022-09-30T14:43:01;99356.60;;;12.90
69590;BMP180;56792;50.644;17.984;2022-09-30T14:45:35;99357.40;;;12.90
69590;BMP180;56792;50.644;17.984;2022-09-30T14:48:10;99360.20;;;12.80
69590;BMP180;56792;50.644;17.984;2022-09-30T14:50:49;99361.60;;;12.80
69590;BMP180;56792;50.644;17.984;2022-09-30T14:53:28;99363.60;;;12.82
69590;BMP180;56792;50.644;17.984;2022-09-30T14:55:59;99365.00;;;12.84
69590;BMP180;56792;50.644;17.984;2022-09-30T14:58:37;99370.40;;;12.82
69590;BMP180;56792;50.644;17.984;2022-09-30T15:01:15;99373.00;;;12.80
69590;BMP180;56792;50.644;17.984;2022-09-30T15:03:50;99377.80;;;12.80
69590;BMP180;56792;50.644;17.984;2022-09-30T15:06:23;99390.00;;;12.80
69590;BMP180;56792;50.644;17.984;2022-09-30T15:09:03;99392.40;;;12.72
69590;BMP180;56792;50.644;17.984;2022-09-30T15:11:34;99392.60;;;12.70
69590;BMP180;56792;50.644;17.984;2022-09-30T15:14:08;99393.40;;;12.60
69590;BMP180;56792;50.644;17.984;2022-09-30T15:16:48;99390.80;;;12.58